This is the latest recevied weather packets stored in our database for station/object N4CRH-13. If no packets are shown the sender has not sent any weather packets the latest 10 day(s).
| Time | Temp. | Humidity | Pressure | Rain* | Wind** | Luminosity | Snow |
|---|---|---|---|---|---|---|---|
| 1777957581 | 5.56° C | 96% | 1290.7 hPa | 0 mm | - | 0 W/m² | - |
| 1777957280 | 5.56° C | 96% | 1290.8 hPa | 0 mm | - | 0 W/m² | - |
| 1777956975 | 5.56° C | 96% | 1290.8 hPa | 0 mm | - | 0 W/m² | - |
| 1777956673 | 5.56° C | 96% | 1290.9 hPa | 0 mm | - | 0 W/m² | - |
| 1777956369 | 5.56° C | 96% | 1290.6 hPa | 0 mm | - | 0 W/m² | - |
| 1777956066 | 5.56° C | 96% | 1290.7 hPa | 0 mm | - | 0 W/m² | - |
| 1777955762 | 5.56° C | 96% | 1290.7 hPa | 0 mm | - | 0 W/m² | - |
| 1777955459 | 5.56° C | 95% | 1290.6 hPa | 0 mm | - | 0 W/m² | - |
| 1777955155 | 5.56° C | 95% | 1290.7 hPa | 0 mm | - | 0 W/m² | - |
| 1777954853 | 5.56° C | 95% | 1290.7 hPa | 0 mm | - | 0 W/m² | - |
| 1777954549 | 5.56° C | 95% | 1290.7 hPa | 0 mm | - | 0 W/m² | - |
| 1777954247 | 5.56° C | 94% | 1290.4 hPa | 0 mm | - | 0 W/m² | - |
| 1777953944 | 5.56° C | 94% | 1290.8 hPa | 0 mm | - | 0 W/m² | - |
| 1777953641 | 5.56° C | 94% | 1290.7 hPa | 0 mm | - | 0 W/m² | - |
| 1777943335 | 8.89° C | 71% | 1289.6 hPa | 1.78 mm | - | 7 W/m² | - |
| 1777943031 | 9.44° C | 68% | 1289.7 hPa | 0 mm | - | 6 W/m² | - |
| 1777942727 | 10° C | 61% | 1289.5 hPa | 0 mm | - | 5 W/m² | - |
| 1777942424 | 10.56° C | 56% | 1289.2 hPa | 0 mm | - | 6 W/m² | - |
| 1777942122 | 11.11° C | 51% | 1289.2 hPa | 0 mm | - | 6 W/m² | - |
| 1777940908 | 11.11° C | 50% | 1288.9 hPa | 0 mm | - | 14 W/m² | - |
| 1777940605 | 11.67° C | 48% | 1289.1 hPa | 0 mm | - | 18 W/m² | - |
| 1777940000 | 11.67° C | 47% | 1289.1 hPa | 0 mm | - | 16 W/m² | - |
| 1777936969 | 13.89° C | 39% | 1288 hPa | 0 mm | - | 114 W/m² | - |
| 1777934848 | 16.11° C | 33% | 1287 hPa | 0 mm | - | 95 W/m² | - |
| 1777934546 | 16.11° C | 29% | 1287 hPa | 0 mm | - | 122 W/m² | - |
* Rain latest hour (hover to see other rain measurements)
** Current wind speed in m/s (hover to see current wind gust speed)